createdAt,value
2018-12-21T00:09:03.891Z,0
2018-12-21T00:10:03.758Z,0
2018-12-21T00:11:03.411Z,0
2018-12-21T00:12:03.296Z,0
2018-12-21T00:13:03.800Z,0
2018-12-21T00:14:03.772Z,0
2018-12-21T00:15:03.215Z,0
2018-12-21T00:16:03.327Z,0
2018-12-21T00:17:03.681Z,0
2018-12-21T00:18:03.430Z,0
2018-12-21T00:19:03.779Z,0
2018-12-21T00:20:03.927Z,0
2018-12-21T00:21:03.506Z,0
2018-12-21T00:22:03.180Z,0
2018-12-21T00:23:03.191Z,0
2018-12-21T00:24:03.261Z,0
2018-12-21T00:25:03.176Z,0
2018-12-21T00:26:03.275Z,0
2018-12-21T00:27:03.477Z,0
2018-12-21T00:28:03.176Z,0
2018-12-21T00:29:03.183Z,0
2018-12-21T00:30:03.326Z,0
2018-12-21T00:31:03.716Z,0
2018-12-21T00:32:03.522Z,0
2018-12-21T00:33:03.293Z,0
2018-12-21T00:34:03.716Z,0
2018-12-21T00:35:03.077Z,0
2018-12-21T00:36:02.910Z,0
2018-12-21T00:37:03.592Z,0
2018-12-21T00:38:03.074Z,0
2018-12-21T00:39:03.236Z,0
2018-12-21T00:40:03.674Z,0
2018-12-21T00:41:03.585Z,0
2018-12-21T00:42:03.038Z,0
2018-12-21T00:43:02.985Z,0
2018-12-21T00:44:04.016Z,0
2018-12-21T00:45:03.843Z,0
2018-12-21T00:46:02.856Z,0
2018-12-21T00:47:03.410Z,0
2018-12-21T00:48:03.291Z,0
2018-12-21T00:49:03.251Z,0
2018-12-21T00:50:03.516Z,0
2018-12-21T00:51:03.655Z,0
2018-12-21T00:52:03.355Z,0
2018-12-21T00:53:03.594Z,0
2018-12-21T00:54:03.604Z,0
2018-12-21T00:55:03.211Z,0
2018-12-21T00:56:03.771Z,0
2018-12-21T00:57:03.380Z,0
2018-12-21T00:58:03.008Z,0
2018-12-21T00:59:03.650Z,0
2018-12-21T01:00:03.763Z,0
2018-12-21T01:01:03.424Z,0
2018-12-21T01:02:03.140Z,0
2018-12-21T01:03:03.009Z,0
2018-12-21T01:04:03.235Z,0
2018-12-21T01:05:03.655Z,0
2018-12-21T01:06:04.160Z,0
2018-12-21T01:07:03.267Z,0
2018-12-21T01:08:04.097Z,0
2018-12-21T01:09:03.598Z,0
2018-12-21T01:10:03.987Z,0
2018-12-21T01:11:03.242Z,0
2018-12-21T01:12:03.283Z,0
2018-12-21T01:13:03.108Z,0
2018-12-21T01:14:03.989Z,0
2018-12-21T01:15:03.922Z,0
2018-12-21T01:16:04.214Z,0
2018-12-21T01:17:03.756Z,0
2018-12-21T01:18:03.111Z,0
2018-12-21T01:19:03.333Z,0
2018-12-21T01:20:04.698Z,0
2018-12-21T01:21:03.648Z,0
2018-12-21T01:22:03.645Z,0
2018-12-21T01:23:03.090Z,0
2018-12-21T01:24:02.783Z,0
2018-12-21T01:25:03.590Z,0
2018-12-21T01:26:03.968Z,0
2018-12-21T01:27:03.615Z,0
2018-12-21T01:28:03.729Z,0
2018-12-21T01:29:03.381Z,0
2018-12-21T01:30:03.201Z,0
2018-12-21T01:31:03.109Z,0
2018-12-21T01:32:03.513Z,0
2018-12-21T01:33:03.543Z,0
2018-12-21T01:34:03.810Z,0
2018-12-21T01:35:03.264Z,0
2018-12-21T01:36:03.051Z,0
2018-12-21T01:37:03.775Z,0
2018-12-21T01:38:03.349Z,0
2018-12-21T01:39:03.160Z,0
2018-12-21T01:40:03.730Z,0
2018-12-21T01:41:03.130Z,0
2018-12-21T01:42:03.488Z,0
2018-12-21T01:43:03.013Z,0
2018-12-21T01:44:03.876Z,0
2018-12-21T01:45:03.094Z,0
2018-12-21T01:46:03.158Z,0
2018-12-21T01:47:03.813Z,0
2018-12-21T01:48:03.549Z,0
2018-12-21T01:49:03.084Z,0
2018-12-21T01:50:04.374Z,0
2018-12-21T01:51:03.543Z,0
2018-12-21T01:52:03.110Z,0
2018-12-21T01:53:03.678Z,0
2018-12-21T01:54:03.782Z,0
2018-12-21T01:55:05.921Z,0
2018-12-21T01:56:03.175Z,0
2018-12-21T01:57:03.698Z,0
2018-12-21T01:58:03.101Z,0
2018-12-21T01:59:03.496Z,0
2018-12-21T02:00:03.173Z,0
2018-12-21T02:01:03.749Z,0
2018-12-21T02:02:12.561Z,0
2018-12-21T02:03:03.579Z,0
2018-12-21T02:04:02.919Z,0
2018-12-21T02:05:03.943Z,0
2018-12-21T02:06:02.810Z,0
2018-12-21T02:07:03.516Z,0
2018-12-21T02:08:03.902Z,0
2018-12-21T02:09:03.550Z,0
2018-12-21T02:10:03.203Z,0
2018-12-21T02:11:03.388Z,0
2018-12-21T02:12:02.775Z,0
2018-12-21T02:13:03.542Z,0
2018-12-21T02:14:03.304Z,0
2018-12-21T02:15:04.254Z,0
2018-12-21T02:16:03.606Z,0
2018-12-21T02:17:03.622Z,0
2018-12-21T02:18:02.747Z,0
2018-12-21T02:19:03.731Z,0
2018-12-21T02:20:03.450Z,0
2018-12-21T02:21:03.492Z,0
2018-12-21T02:22:03.666Z,0
2018-12-21T02:23:03.391Z,0
2018-12-21T02:24:03.608Z,0
2018-12-21T02:25:03.849Z,0
2018-12-21T02:26:03.717Z,0
2018-12-21T02:27:03.218Z,0
2018-12-21T02:28:03.202Z,0
2018-12-21T02:29:03.795Z,0
2018-12-21T02:30:03.811Z,0
2018-12-21T02:31:03.018Z,0
2018-12-21T02:32:03.708Z,0
2018-12-21T02:33:03.848Z,0
2018-12-21T02:34:04.058Z,0
2018-12-21T02:35:03.356Z,0
2018-12-21T02:36:04.102Z,0
2018-12-21T02:37:03.184Z,0
2018-12-21T02:38:03.135Z,0
2018-12-21T02:39:03.519Z,0
2018-12-21T02:40:03.185Z,0
2018-12-21T02:41:03.383Z,0
2018-12-21T02:42:03.081Z,0
2018-12-21T02:43:03.857Z,0
2018-12-21T02:44:03.227Z,0
2018-12-21T02:45:03.936Z,0
2018-12-21T02:46:03.084Z,0
2018-12-21T02:47:03.765Z,0
2018-12-21T02:48:03.851Z,0
2018-12-21T02:49:03.084Z,0
2018-12-21T02:50:03.476Z,0
2018-12-21T02:51:03.810Z,0
2018-12-21T02:52:06.146Z,0
2018-12-21T02:53:03.858Z,0
2018-12-21T02:54:03.198Z,0
2018-12-21T02:55:04.084Z,0
2018-12-21T02:56:04.066Z,0
2018-12-21T02:57:03.555Z,0
2018-12-21T02:58:03.638Z,0
2018-12-21T02:59:02.772Z,0
2018-12-21T03:00:03.600Z,0
2018-12-21T03:01:03.885Z,0
2018-12-21T03:02:03.862Z,0
2018-12-21T03:03:03.628Z,0
2018-12-21T03:04:03.742Z,0
2018-12-21T03:05:03.145Z,0
2018-12-21T03:06:03.251Z,0
2018-12-21T03:07:03.815Z,0
2018-12-21T03:08:03.279Z,0
2018-12-21T03:09:03.919Z,0
2018-12-21T03:10:03.201Z,0
2018-12-21T03:11:03.283Z,0
2018-12-21T03:12:03.631Z,0
2018-12-21T03:13:03.807Z,0
2018-12-21T03:14:04.419Z,0
2018-12-21T03:15:03.272Z,0
2018-12-21T03:16:03.157Z,0
2018-12-21T03:17:03.190Z,0
2018-12-21T03:18:03.615Z,0
2018-12-21T03:19:03.162Z,0
2018-12-21T03:20:03.583Z,0
2018-12-21T03:21:03.736Z,0
2018-12-21T03:22:03.427Z,0
2018-12-21T03:23:03.860Z,0
2018-12-21T03:24:03.720Z,0
2018-12-21T03:25:03.512Z,0
2018-12-21T03:26:03.507Z,0
2018-12-21T03:27:03.597Z,0
2018-12-21T03:28:03.480Z,0
2018-12-21T03:29:03.243Z,0
2018-12-21T03:30:03.420Z,0
2018-12-21T03:31:03.653Z,0
2018-12-21T03:32:03.322Z,0
2018-12-21T03:33:04.400Z,0
2018-12-21T03:34:04.123Z,0
2018-12-21T03:35:09.661Z,0
2018-12-21T03:36:03.389Z,0
2018-12-21T03:37:03.134Z,0
2018-12-21T03:38:06.256Z,0
2018-12-21T03:39:04.175Z,0
2018-12-21T03:40:05.752Z,0
2018-12-21T03:41:03.126Z,0
2018-12-21T03:42:03.848Z,0
2018-12-21T03:43:04.211Z,0
2018-12-21T03:44:03.245Z,0
2018-12-21T03:45:03.863Z,0
2018-12-21T03:46:03.231Z,0
2018-12-21T03:47:03.647Z,0
2018-12-21T03:48:03.173Z,0
2018-12-21T03:49:03.334Z,0
2018-12-21T03:50:03.720Z,0
2018-12-21T03:51:03.120Z,0
2018-12-21T03:52:03.694Z,0
2018-12-21T03:53:03.504Z,0
2018-12-21T03:54:03.912Z,0
2018-12-21T03:55:03.044Z,0
2018-12-21T03:56:03.738Z,0
2018-12-21T03:57:03.512Z,0
2018-12-21T03:58:03.157Z,0
2018-12-21T03:59:03.215Z,0
2018-12-21T04:00:03.688Z,0
2018-12-21T04:01:03.260Z,0
2018-12-21T04:02:03.155Z,0
2018-12-21T04:03:03.566Z,0
2018-12-21T04:04:03.977Z,0
2018-12-21T04:05:03.760Z,0
2018-12-21T04:06:03.141Z,0
2018-12-21T04:07:03.428Z,0
2018-12-21T04:08:02.955Z,0
2018-12-21T04:09:03.890Z,0
2018-12-21T04:10:03.750Z,0
2018-12-21T04:11:03.454Z,0
2018-12-21T04:12:03.733Z,0
2018-12-21T04:13:03.350Z,0
2018-12-21T04:14:03.875Z,0
2018-12-21T04:15:03.739Z,0
2018-12-21T04:16:03.807Z,0
2018-12-21T04:17:03.312Z,0
2018-12-21T04:18:02.962Z,0
2018-12-21T04:19:04.132Z,0
2018-12-21T04:20:03.718Z,0
2018-12-21T04:21:03.939Z,0
2018-12-21T04:22:03.364Z,0
2018-12-21T04:23:03.159Z,0
2018-12-21T04:24:03.827Z,0
2018-12-21T04:25:03.867Z,0
2018-12-21T04:26:03.777Z,0
2018-12-21T04:27:03.584Z,0
2018-12-21T04:28:03.702Z,0
2018-12-21T04:29:03.108Z,0
2018-12-21T04:30:03.625Z,0
2018-12-21T04:31:02.805Z,0
2018-12-21T04:32:03.047Z,0
2018-12-21T04:33:03.946Z,0
2018-12-21T04:34:03.881Z,0
2018-12-21T04:35:03.877Z,0
2018-12-21T04:36:03.362Z,0
2018-12-21T04:37:03.507Z,0
2018-12-21T04:38:03.081Z,0
2018-12-21T04:39:03.432Z,0
2018-12-21T04:40:03.416Z,0
2018-12-21T04:41:03.269Z,0
2018-12-21T04:42:03.829Z,0
2018-12-21T04:43:03.263Z,0
2018-12-21T04:44:04.027Z,0
2018-12-21T04:45:03.401Z,0
2018-12-21T04:46:02.912Z,0
2018-12-21T04:47:03.937Z,0
2018-12-21T04:48:03.506Z,0
2018-12-21T04:49:03.404Z,0
2018-12-21T04:50:03.247Z,0
2018-12-21T04:51:03.141Z,0
2018-12-21T04:52:03.141Z,0
2018-12-21T04:53:03.134Z,0
2018-12-21T04:54:03.393Z,0
2018-12-21T04:55:03.513Z,0
2018-12-21T04:56:03.519Z,0
2018-12-21T04:57:03.284Z,0
2018-12-21T04:58:03.128Z,0
2018-12-21T04:59:03.679Z,0
2018-12-21T05:00:03.645Z,0
2018-12-21T05:01:04.068Z,0
2018-12-21T05:02:03.660Z,0
2018-12-21T05:03:03.544Z,0
2018-12-21T05:04:03.842Z,0
2018-12-21T05:05:03.752Z,0
2018-12-21T05:06:03.663Z,0
2018-12-21T05:07:13.197Z,0
2018-12-21T05:08:02.883Z,0
2018-12-21T05:09:03.358Z,0
2018-12-21T05:10:03.581Z,0
2018-12-21T05:11:03.145Z,0
2018-12-21T05:12:03.417Z,0
2018-12-21T05:13:03.138Z,0
2018-12-21T05:14:03.134Z,0
2018-12-21T05:15:03.867Z,0
2018-12-21T05:16:03.084Z,0
2018-12-21T05:17:02.938Z,0
2018-12-21T05:18:03.703Z,0
2018-12-21T05:19:04.076Z,0
2018-12-21T05:20:03.786Z,0
2018-12-21T05:21:03.373Z,0
2018-12-21T05:22:02.888Z,0
2018-12-21T05:23:03.809Z,0
2018-12-21T05:24:03.024Z,0
2018-12-21T05:25:03.696Z,0
2018-12-21T05:26:03.833Z,0
2018-12-21T05:27:02.940Z,0
2018-12-21T05:28:03.304Z,0
2018-12-21T05:29:03.799Z,0
2018-12-21T05:30:03.419Z,0
2018-12-21T05:31:03.399Z,0
2018-12-21T05:32:03.227Z,0
2018-12-21T05:33:03.399Z,0
2018-12-21T05:34:02.856Z,0
2018-12-21T05:35:03.277Z,0
2018-12-21T05:36:03.505Z,0
2018-12-21T05:37:03.946Z,0
2018-12-21T05:38:03.438Z,0
2018-12-21T05:39:03.749Z,0
2018-12-21T05:40:03.050Z,0
2018-12-21T05:41:03.641Z,0
2018-12-21T05:42:03.258Z,0
2018-12-21T05:43:03.640Z,0
2018-12-21T05:44:03.029Z,0
2018-12-21T05:45:03.719Z,0
2018-12-21T05:46:03.277Z,0
2018-12-21T05:47:03.406Z,0
2018-12-21T05:48:03.302Z,0
2018-12-21T05:49:04.014Z,0
2018-12-21T05:50:03.490Z,0
2018-12-21T05:51:03.033Z,0
2018-12-21T05:52:03.549Z,0
2018-12-21T05:53:03.834Z,0
2018-12-21T05:54:03.307Z,0
2018-12-21T05:55:03.802Z,0
2018-12-21T05:56:02.891Z,0
2018-12-21T05:57:02.931Z,0
2018-12-21T05:58:03.070Z,0
2018-12-21T05:59:03.648Z,0
2018-12-21T06:00:03.203Z,0
2018-12-21T06:01:03.339Z,0
2018-12-21T06:02:05.801Z,0
2018-12-21T06:03:03.331Z,0
2018-12-21T06:04:03.307Z,0
2018-12-21T06:05:02.947Z,0
2018-12-21T06:06:03.411Z,0
2018-12-21T06:07:03.549Z,0
2018-12-21T06:08:03.915Z,0
2018-12-21T06:09:03.402Z,0
2018-12-21T06:10:03.451Z,0
2018-12-21T06:11:03.694Z,0
2018-12-21T06:12:03.112Z,0
2018-12-21T06:13:03.412Z,0
2018-12-21T06:14:03.259Z,0
2018-12-21T06:15:03.949Z,0
2018-12-21T06:16:03.897Z,0
2018-12-21T06:17:03.295Z,0
2018-12-21T06:18:03.916Z,0
2018-12-21T06:19:03.372Z,0
2018-12-21T06:20:03.624Z,0
2018-12-21T06:21:03.410Z,0
2018-12-21T06:22:03.884Z,0
2018-12-21T06:23:10.019Z,0
2018-12-21T06:24:03.740Z,0
2018-12-21T06:25:03.241Z,0
2018-12-21T06:26:03.291Z,0
2018-12-21T06:27:03.332Z,0
2018-12-21T06:28:03.681Z,0
2018-12-21T06:29:03.409Z,0
2018-12-21T06:30:03.475Z,0
2018-12-21T06:31:03.766Z,0
2018-12-21T06:32:03.234Z,0
2018-12-21T06:33:03.147Z,0
2018-12-21T06:34:03.180Z,0
2018-12-21T06:35:03.576Z,0
2018-12-21T06:36:04.053Z,0
2018-12-21T06:37:03.057Z,0
2018-12-21T06:38:04.159Z,0
2018-12-21T06:39:03.445Z,0
2018-12-21T06:40:03.567Z,0
2018-12-21T06:41:03.767Z,0
2018-12-21T06:42:03.452Z,0
2018-12-21T06:43:03.013Z,0
2018-12-21T06:44:03.199Z,0
2018-12-21T06:45:03.397Z,0
2018-12-21T06:46:03.577Z,0
2018-12-21T06:47:03.756Z,0
2018-12-21T06:48:03.123Z,0
2018-12-21T06:49:03.620Z,0
2018-12-21T06:50:03.443Z,0
2018-12-21T06:51:03.815Z,0
2018-12-21T06:52:03.114Z,0
2018-12-21T06:53:03.270Z,0
2018-12-21T06:54:03.587Z,0
2018-12-21T06:55:03.820Z,0
2018-12-21T06:56:02.956Z,0
2018-12-21T06:57:03.506Z,0
2018-12-21T06:58:03.877Z,0
2018-12-21T06:59:03.907Z,0
2018-12-21T07:00:03.767Z,0
2018-12-21T07:01:03.776Z,0
2018-12-21T07:02:03.926Z,0
2018-12-21T07:03:03.496Z,0
2018-12-21T07:04:03.745Z,0
2018-12-21T07:05:04.040Z,0
2018-12-21T07:06:03.124Z,0
2018-12-21T07:07:03.078Z,0
2018-12-21T07:08:03.084Z,0
2018-12-21T07:09:03.904Z,0
2018-12-21T07:10:03.232Z,0
2018-12-21T07:11:03.280Z,0
2018-12-21T07:12:03.066Z,0
2018-12-21T07:13:03.776Z,0
2018-12-21T07:14:03.814Z,0
2018-12-21T07:15:03.276Z,0
2018-12-21T07:16:03.171Z,0
2018-12-21T07:17:03.328Z,0
2018-12-21T07:18:03.070Z,0
2018-12-21T07:19:03.593Z,0
2018-12-21T07:20:03.132Z,0
2018-12-21T07:21:03.094Z,0
2018-12-21T07:22:03.200Z,0
2018-12-21T07:23:03.293Z,0
2018-12-21T07:24:02.929Z,0
2018-12-21T07:25:03.990Z,0
2018-12-21T07:26:03.916Z,0
2018-12-21T07:27:03.357Z,0
2018-12-21T07:28:03.397Z,0
2018-12-21T07:29:02.937Z,0
2018-12-21T07:30:03.866Z,0
2018-12-21T07:31:03.676Z,0
2018-12-21T07:32:03.230Z,0
2018-12-21T07:33:03.736Z,0
2018-12-21T07:34:03.588Z,0
2018-12-21T07:35:02.956Z,0
2018-12-21T07:36:09.206Z,0
2018-12-21T07:37:03.801Z,0
2018-12-21T07:38:03.251Z,0
2018-12-21T07:39:03.415Z,0
2018-12-21T07:40:03.085Z,0
2018-12-21T07:41:03.489Z,0
2018-12-21T07:42:03.138Z,0
2018-12-21T07:43:03.544Z,0
2018-12-21T07:44:03.368Z,0
2018-12-21T07:45:03.329Z,0
2018-12-21T07:46:03.058Z,0
2018-12-21T07:47:03.070Z,0
2018-12-21T07:48:03.734Z,0
2018-12-21T07:49:03.502Z,0
2018-12-21T07:50:03.191Z,0
2018-12-21T07:51:02.932Z,0
2018-12-21T07:52:02.972Z,0
2018-12-21T07:53:03.410Z,0
2018-12-21T07:54:03.591Z,0
2018-12-21T07:55:03.832Z,0
2018-12-21T07:56:03.587Z,0
2018-12-21T07:57:03.436Z,0
2018-12-21T07:58:03.643Z,0
2018-12-21T07:59:03.491Z,0
2018-12-21T08:00:03.384Z,0
2018-12-21T08:01:04.052Z,0
2018-12-21T08:02:03.482Z,0
2018-12-21T08:03:02.844Z,0
2018-12-21T08:04:03.846Z,0
2018-12-21T08:05:04.051Z,0
2018-12-21T08:06:02.948Z,0
2018-12-21T08:07:03.176Z,0
2018-12-21T08:08:03.631Z,0
2018-12-21T08:09:03.764Z,0
2018-12-21T08:10:03.421Z,0
2018-12-21T08:11:03.564Z,0
2018-12-21T08:12:03.800Z,0
2018-12-21T08:13:03.702Z,0
2018-12-21T08:14:03.006Z,0
2018-12-21T08:15:08.626Z,0
2018-12-21T08:16:03.992Z,0
2018-12-21T08:17:03.433Z,0
2018-12-21T08:18:03.030Z,0
2018-12-21T08:19:03.522Z,0
2018-12-21T08:20:03.862Z,0
2018-12-21T08:21:03.832Z,0
2018-12-21T08:22:03.631Z,0
2018-12-21T08:23:03.806Z,0
2018-12-21T08:24:03.678Z,0
2018-12-21T08:25:03.861Z,0
2018-12-21T08:26:03.025Z,0
2018-12-21T08:27:03.026Z,0
2018-12-21T08:28:03.708Z,0
2018-12-21T08:29:04.140Z,0
2018-12-21T08:30:03.019Z,0
2018-12-21T08:31:03.322Z,0
2018-12-21T08:32:03.719Z,0
2018-12-21T08:33:03.791Z,0
2018-12-21T08:34:04.427Z,0
2018-12-21T08:35:03.241Z,0
2018-12-21T08:36:03.904Z,0
2018-12-21T08:37:03.681Z,0
2018-12-21T08:38:03.215Z,0
2018-12-21T08:39:02.936Z,0
2018-12-21T08:40:03.361Z,0
2018-12-21T08:41:02.979Z,0
2018-12-21T08:42:03.122Z,0
2018-12-21T08:43:03.167Z,0
2018-12-21T08:44:03.026Z,0
2018-12-21T08:45:03.918Z,0
2018-12-21T08:46:07.548Z,0
2018-12-21T08:47:03.125Z,0
2018-12-21T08:48:03.158Z,0
2018-12-21T08:49:03.085Z,0
2018-12-21T08:50:03.165Z,0
2018-12-21T08:51:03.712Z,0
2018-12-21T08:52:03.833Z,0
2018-12-21T08:53:03.019Z,0
2018-12-21T08:54:03.535Z,0
2018-12-21T08:55:03.960Z,0
2018-12-21T08:56:03.740Z,0
2018-12-21T08:57:03.756Z,0
2018-12-21T08:58:03.587Z,0
2018-12-21T08:59:03.649Z,0
2018-12-21T09:00:03.376Z,0
2018-12-21T09:01:03.008Z,0
2018-12-21T09:02:03.619Z,0
2018-12-21T09:03:03.372Z,0
2018-12-21T09:04:03.296Z,0
2018-12-21T09:05:04.122Z,0
2018-12-21T09:06:03.257Z,0
2018-12-21T09:07:03.613Z,0
2018-12-21T09:08:03.039Z,0
2018-12-21T09:09:04.731Z,0
2018-12-21T09:10:03.008Z,0
2018-12-21T09:11:03.879Z,0
2018-12-21T09:12:03.777Z,0
2018-12-21T09:13:03.207Z,0
2018-12-21T09:14:03.360Z,0
2018-12-21T09:15:04.120Z,0
2018-12-21T09:16:04.106Z,0
2018-12-21T09:17:03.462Z,0
2018-12-21T09:18:03.920Z,0
2018-12-21T09:19:03.094Z,0
2018-12-21T09:20:03.090Z,0
2018-12-21T09:21:03.927Z,0
2018-12-21T09:22:03.545Z,0
2018-12-21T09:23:02.892Z,0
2018-12-21T09:24:03.166Z,0
2018-12-21T09:25:04.433Z,0
2018-12-21T09:26:03.527Z,0
2018-12-21T09:27:03.790Z,0
2018-12-21T09:28:02.835Z,0
2018-12-21T09:29:03.318Z,0
2018-12-21T09:30:03.225Z,0
2018-12-21T09:31:03.545Z,0
2018-12-21T09:32:05.764Z,0
2018-12-21T09:33:02.970Z,0
2018-12-21T09:34:03.269Z,0
2018-12-21T09:35:04.202Z,0
2018-12-21T09:36:03.719Z,0
2018-12-21T09:37:03.933Z,0
2018-12-21T09:38:03.036Z,0
2018-12-21T09:39:03.957Z,0
2018-12-21T09:40:03.838Z,0
2018-12-21T09:41:03.152Z,0
2018-12-21T09:42:03.325Z,0
2018-12-21T09:43:03.085Z,0
2018-12-21T09:44:03.279Z,0
2018-12-21T09:45:04.155Z,0
2018-12-21T09:46:03.112Z,0
2018-12-21T09:47:03.997Z,0
2018-12-21T09:48:03.346Z,0
2018-12-21T09:49:03.453Z,0
2018-12-21T09:50:03.276Z,0
2018-12-21T09:51:03.646Z,0
2018-12-21T09:52:03.328Z,0
2018-12-21T09:53:03.600Z,0
2018-12-21T09:54:10.561Z,0
2018-12-21T09:55:04.317Z,0
2018-12-21T09:56:03.686Z,0
2018-12-21T09:57:03.641Z,0
2018-12-21T09:58:03.363Z,0
2018-12-21T09:59:03.842Z,0
2018-12-21T10:00:03.660Z,0
2018-12-21T10:01:03.961Z,0
2018-12-21T10:02:03.742Z,0
2018-12-21T10:03:03.095Z,0
2018-12-21T10:04:03.975Z,0
2018-12-21T10:05:03.728Z,0
2018-12-21T10:06:03.947Z,0
2018-12-21T10:07:03.576Z,0
2018-12-21T10:08:03.230Z,0
2018-12-21T10:09:03.416Z,0
2018-12-21T10:10:03.153Z,0
2018-12-21T10:11:03.740Z,0
2018-12-21T10:12:03.220Z,0
2018-12-21T10:13:03.690Z,0
2018-12-21T10:14:04.263Z,0
2018-12-21T10:15:05.967Z,0
2018-12-21T10:16:04.224Z,0
2018-12-21T10:17:11.138Z,0
2018-12-21T10:18:03.628Z,0
2018-12-21T10:19:03.487Z,0
2018-12-21T10:20:02.876Z,0
2018-12-21T10:21:03.765Z,0
2018-12-21T10:22:03.173Z,0
2018-12-21T10:23:03.656Z,0
2018-12-21T10:24:08.266Z,0
2018-12-21T10:25:04.341Z,0
2018-12-21T10:26:03.990Z,0
2018-12-21T10:27:03.413Z,0
2018-12-21T10:28:03.572Z,0
2018-12-21T10:29:03.603Z,0
2018-12-21T10:30:03.777Z,0
2018-12-21T10:31:03.621Z,0
2018-12-21T10:32:14.445Z,0
2018-12-21T10:33:08.017Z,0
2018-12-21T10:34:03.767Z,0
2018-12-21T10:35:03.913Z,0
2018-12-21T10:36:03.779Z,0
2018-12-21T10:37:04.091Z,0
2018-12-21T10:38:03.487Z,0
2018-12-21T10:39:03.138Z,0
2018-12-21T10:40:03.015Z,0
2018-12-21T10:41:03.216Z,0
2018-12-21T10:42:03.622Z,0
2018-12-21T10:43:03.063Z,0
2018-12-21T10:44:03.004Z,0
2018-12-21T10:45:05.091Z,0
2018-12-21T10:46:03.686Z,0
2018-12-21T10:47:05.118Z,0
2018-12-21T10:48:03.113Z,0
2018-12-21T10:49:03.330Z,0
2018-12-21T10:50:03.572Z,0
2018-12-21T10:51:03.305Z,0
2018-12-21T10:52:03.877Z,0
2018-12-21T10:53:03.661Z,0
2018-12-21T10:54:03.810Z,0
2018-12-21T10:55:03.828Z,0
2018-12-21T10:56:03.893Z,0
2018-12-21T10:57:04.072Z,0
2018-12-21T10:58:04.595Z,0
2018-12-21T10:59:03.958Z,0
2018-12-21T11:00:03.129Z,0
2018-12-21T11:01:04.980Z,0
2018-12-21T11:02:03.984Z,0
2018-12-21T11:03:05.957Z,0
2018-12-21T11:04:03.602Z,0
2018-12-21T11:05:03.878Z,0
2018-12-21T11:06:04.429Z,0
2018-12-21T11:07:04.334Z,0
2018-12-21T11:08:03.160Z,0
2018-12-21T11:09:02.943Z,0
2018-12-21T11:10:03.292Z,0
2018-12-21T11:11:03.605Z,0
2018-12-21T11:12:04.172Z,0
2018-12-21T11:13:03.641Z,0
2018-12-21T11:14:03.136Z,0
2018-12-21T11:15:03.204Z,0
2018-12-21T11:16:03.054Z,0
2018-12-21T11:17:03.462Z,0
2018-12-21T11:18:03.454Z,0
2018-12-21T11:19:03.299Z,0
2018-12-21T11:20:09.967Z,0
2018-12-21T11:21:03.534Z,0
2018-12-21T11:22:03.704Z,0
2018-12-21T11:23:02.804Z,0
2018-12-21T11:24:03.510Z,0
2018-12-21T11:25:03.106Z,0
2018-12-21T11:26:03.375Z,0
2018-12-21T11:27:03.936Z,0
2018-12-21T11:28:03.168Z,0
2018-12-21T11:29:03.084Z,0
2018-12-21T11:30:03.680Z,0
2018-12-21T11:31:07.751Z,0
2018-12-21T11:32:03.703Z,0
2018-12-21T11:33:03.869Z,-0.3
2018-12-21T11:34:03.180Z,2.7
2018-12-21T11:35:03.423Z,2.7
2018-12-21T11:36:03.185Z,2.7
2018-12-21T11:37:03.250Z,2.7
2018-12-21T11:38:08.083Z,2.7
2018-12-21T11:39:04.051Z,2.7
2018-12-21T11:40:03.269Z,2.7
2018-12-21T11:41:04.013Z,2.7
2018-12-21T11:42:03.226Z,2.7
2018-12-21T11:43:03.206Z,2.7
2018-12-21T11:44:06.686Z,3
2018-12-21T11:45:02.870Z,3
2018-12-21T11:46:03.844Z,3
2018-12-21T11:47:02.900Z,3
2018-12-21T11:48:03.244Z,3
2018-12-21T11:49:04.057Z,3
2018-12-21T11:50:04.073Z,3
2018-12-21T11:51:03.717Z,3
2018-12-21T11:52:03.859Z,3
2018-12-21T11:53:03.649Z,3
2018-12-21T11:54:02.882Z,3
2018-12-21T11:55:03.440Z,3
2018-12-21T11:56:03.117Z,3
2018-12-21T11:57:03.338Z,3
2018-12-21T11:58:03.714Z,3
2018-12-21T11:59:03.504Z,3
2018-12-21T12:00:03.400Z,3
2018-12-21T12:01:03.450Z,3
2018-12-21T12:02:04.127Z,3
2018-12-21T12:03:03.364Z,3
2018-12-21T12:04:03.588Z,3
2018-12-21T12:05:03.621Z,3
2018-12-21T12:06:03.468Z,3
2018-12-21T12:07:03.202Z,3
2018-12-21T12:08:03.397Z,3
2018-12-21T12:09:06.844Z,3
2018-12-21T12:10:03.285Z,3
2018-12-21T12:11:03.940Z,3
2018-12-21T12:12:03.836Z,3
2018-12-21T12:13:03.601Z,3
2018-12-21T12:14:03.446Z,3
2018-12-21T12:15:03.652Z,3
2018-12-21T12:16:03.171Z,3
2018-12-21T12:17:02.934Z,3
2018-12-21T12:18:03.002Z,3
2018-12-21T12:19:03.011Z,3
2018-12-21T12:20:03.263Z,3
2018-12-21T12:21:03.526Z,3
2018-12-21T12:22:03.963Z,3
2018-12-21T12:23:03.883Z,3.3
2018-12-21T12:24:02.984Z,3.6
2018-12-21T12:25:03.182Z,3.6
2018-12-21T12:26:03.285Z,3.6
2018-12-21T12:27:03.535Z,3.6
2018-12-21T12:28:03.264Z,3.6
2018-12-21T12:29:03.232Z,3.6
2018-12-21T12:30:06.154Z,3.6
2018-12-21T12:31:03.158Z,3.6
2018-12-21T12:32:04.140Z,3.6
2018-12-21T12:33:03.516Z,0
2018-12-21T12:34:03.239Z,3.9
2018-12-21T12:35:03.958Z,0.9
2018-12-21T12:36:03.268Z,0.9
2018-12-21T12:37:03.457Z,0.9
2018-12-21T12:38:03.557Z,0.9
2018-12-21T12:39:03.608Z,0.9
2018-12-21T12:40:03.945Z,0.9
2018-12-21T12:41:07.258Z,0.9
2018-12-21T12:42:04.094Z,0.9
2018-12-21T12:43:03.215Z,0.9
2018-12-21T12:44:03.568Z,0.9
2018-12-21T12:45:03.459Z,0.6
2018-12-21T12:46:03.814Z,0.6
2018-12-21T12:47:03.588Z,0.6
2018-12-21T12:48:03.739Z,0.6
2018-12-21T12:49:03.647Z,0.6
2018-12-21T12:50:03.697Z,0.6
2018-12-21T12:51:03.625Z,0.6
2018-12-21T12:52:03.732Z,0.6
2018-12-21T12:53:02.815Z,0.6
2018-12-21T12:54:03.173Z,0.6
2018-12-21T12:55:03.607Z,0.6
2018-12-21T12:56:05.614Z,0.6
2018-12-21T12:57:03.275Z,0.6
2018-12-21T12:58:03.227Z,0.6
2018-12-21T12:59:02.924Z,0.6
2018-12-21T13:00:04.373Z,0.6
2018-12-21T13:01:03.616Z,0.6
2018-12-21T13:02:03.902Z,0.6
2018-12-21T13:03:03.809Z,0.6
2018-12-21T13:04:03.233Z,0.6
2018-12-21T13:05:03.862Z,0.6
2018-12-21T13:06:03.428Z,0.6
2018-12-21T13:07:03.265Z,0.6
2018-12-21T13:08:02.985Z,0.6
2018-12-21T13:09:03.585Z,0.9
2018-12-21T13:10:04.172Z,0.9
2018-12-21T13:11:03.811Z,0.9
2018-12-21T13:12:03.461Z,0.9
2018-12-21T13:13:03.182Z,0.9
2018-12-21T13:14:03.522Z,0.9
2018-12-21T13:15:03.241Z,0.9
2018-12-21T13:16:03.631Z,0.9
2018-12-21T13:17:03.097Z,0.9
2018-12-21T13:18:03.838Z,0.9
2018-12-21T13:19:03.892Z,0.9
2018-12-21T13:20:03.556Z,0.9
2018-12-21T13:21:03.246Z,0.9
2018-12-21T13:22:03.050Z,0.9
2018-12-21T13:23:03.533Z,0.9
2018-12-21T13:24:02.996Z,0.6
2018-12-21T13:25:12.122Z,0.3
2018-12-21T13:26:03.380Z,0.3
2018-12-21T13:27:02.897Z,0.3
2018-12-21T13:28:03.117Z,0.3
2018-12-21T13:29:03.013Z,0.3
2018-12-21T13:30:03.349Z,0.3
2018-12-21T13:31:03.712Z,0.3
2018-12-21T13:32:03.664Z,0.3
2018-12-21T13:33:03.223Z,0.3
2018-12-21T13:34:02.857Z,0.3
2018-12-21T13:35:03.821Z,0.3
2018-12-21T13:36:03.475Z,0.3
2018-12-21T13:37:03.022Z,0.3
2018-12-21T13:38:03.809Z,0.3
2018-12-21T13:39:03.986Z,0.3
2018-12-21T13:40:03.858Z,0.3
2018-12-21T13:41:03.522Z,0.3
2018-12-21T13:42:03.714Z,0.3
2018-12-21T13:43:03.233Z,0.3
2018-12-21T13:44:03.057Z,0.3
2018-12-21T13:45:03.975Z,0.3
2018-12-21T13:46:03.108Z,0.3
2018-12-21T13:47:03.548Z,0.3
2018-12-21T13:48:03.797Z,0.3
2018-12-21T13:49:03.262Z,0.3
2018-12-21T13:50:03.681Z,0.3
2018-12-21T13:51:03.562Z,0.3
2018-12-21T13:52:03.034Z,0.3
2018-12-21T13:53:03.158Z,0.3
2018-12-21T13:54:03.283Z,0.3
2018-12-21T13:55:03.031Z,0.3
2018-12-21T13:56:03.926Z,0.3
2018-12-21T13:57:02.921Z,0.3
2018-12-21T13:58:03.188Z,0.3
2018-12-21T13:59:03.393Z,0.3
2018-12-21T14:00:04.072Z,0.3
2018-12-21T14:01:03.559Z,0.3
2018-12-21T14:02:03.553Z,0.3
2018-12-21T14:03:03.181Z,0.3
2018-12-21T14:04:03.671Z,0.3
2018-12-21T14:05:03.188Z,0.3
2018-12-21T14:06:03.244Z,0.3
2018-12-21T14:07:03.704Z,0.3
2018-12-21T14:08:03.254Z,0.3
2018-12-21T14:09:04.470Z,0.3
2018-12-21T14:10:04.087Z,0
2018-12-21T14:11:03.250Z,0
2018-12-21T14:12:03.449Z,0
2018-12-21T14:13:03.120Z,0
2018-12-21T14:14:03.082Z,0
2018-12-21T14:15:03.628Z,0
2018-12-21T14:16:03.530Z,0
2018-12-21T14:17:03.095Z,0
2018-12-21T14:18:03.371Z,0
2018-12-21T14:19:03.307Z,0
2018-12-21T14:20:03.503Z,0
2018-12-21T14:21:03.876Z,0
2018-12-21T14:22:03.524Z,0
2018-12-21T14:23:03.825Z,0
2018-12-21T14:24:03.765Z,0
2018-12-21T14:25:03.874Z,0
2018-12-21T14:26:03.092Z,0
2018-12-21T14:27:03.686Z,0
2018-12-21T14:28:03.329Z,0
2018-12-21T14:29:03.375Z,0
2018-12-21T14:30:03.833Z,0
2018-12-21T14:31:03.427Z,0
2018-12-21T14:32:02.997Z,0
2018-12-21T14:33:03.315Z,0
2018-12-21T14:34:04.004Z,0
2018-12-21T14:35:03.445Z,0
2018-12-21T14:36:02.906Z,0
2018-12-21T14:37:03.501Z,0
2018-12-21T14:38:03.638Z,0
2018-12-21T14:39:03.542Z,0
2018-12-21T14:40:03.453Z,0
2018-12-21T14:41:03.122Z,0
2018-12-21T14:42:03.636Z,0
2018-12-21T14:43:03.193Z,0
2018-12-21T14:44:02.782Z,0
2018-12-21T14:45:02.856Z,0
2018-12-21T14:46:03.294Z,0
2018-12-21T14:47:03.907Z,0